createdAt,value
2023-05-05T00:01:15.231Z,9.56
2023-05-05T00:03:47.709Z,9.47
2023-05-05T00:06:19.944Z,9.39
2023-05-05T00:08:51.980Z,9.32
2023-05-05T00:11:24.036Z,9.20
2023-05-05T00:13:56.320Z,9.12
2023-05-05T00:16:28.593Z,9.07
2023-05-05T00:19:01.393Z,8.99
2023-05-05T00:21:33.436Z,8.95
2023-05-05T00:24:05.983Z,8.91
2023-05-05T00:26:38.197Z,8.85
2023-05-05T00:29:10.664Z,8.81
2023-05-05T00:31:42.824Z,8.79
2023-05-05T00:34:14.979Z,8.82
2023-05-05T00:36:47.207Z,8.89
2023-05-05T00:39:19.531Z,8.98
2023-05-05T00:41:51.781Z,8.97
2023-05-05T00:44:42.919Z,8.98
2023-05-05T00:47:17.036Z,8.98
2023-05-05T00:49:49.332Z,8.96
2023-05-05T00:52:21.572Z,8.93
2023-05-05T00:54:54.820Z,8.86
2023-05-05T00:57:27.269Z,8.87
2023-05-05T01:00:01.461Z,8.85
2023-05-05T01:02:34.735Z,8.90
2023-05-05T01:05:07.857Z,8.88
2023-05-05T01:07:51.415Z,8.84
2023-05-05T01:10:41.322Z,8.83
2023-05-05T01:13:27.984Z,8.79
2023-05-05T01:16:14.974Z,8.78
2023-05-05T01:18:56.546Z,8.75
2023-05-05T01:21:46.535Z,8.77
2023-05-05T01:24:38.446Z,8.77
2023-05-05T01:27:47.809Z,8.78
2023-05-05T01:30:37.828Z,8.79
2023-05-05T01:33:12.740Z,8.77
2023-05-05T01:35:47.826Z,8.72
2023-05-05T01:38:22.795Z,8.69
2023-05-05T01:41:00.960Z,8.67
2023-05-05T01:43:36.165Z,8.65
2023-05-05T01:46:10.476Z,8.62
2023-05-05T01:48:44.260Z,8.64
2023-05-05T01:51:19.057Z,8.66
2023-05-05T01:53:56.233Z,8.69
2023-05-05T01:56:30.262Z,8.68
2023-05-05T01:59:03.450Z,8.71
2023-05-05T02:01:38.797Z,8.75
2023-05-05T02:04:13.214Z,8.76
2023-05-05T02:06:47.739Z,8.72
2023-05-05T02:09:21.798Z,8.70
2023-05-05T02:11:56.485Z,8.63
2023-05-05T02:14:30.746Z,8.57
2023-05-05T02:17:05.195Z,8.55
2023-05-05T02:19:40.827Z,8.55
2023-05-05T02:22:12.837Z,8.70
2023-05-05T02:24:45.833Z,8.74
2023-05-05T02:27:21.533Z,8.70
2023-05-05T02:29:57.519Z,8.74
2023-05-05T02:32:36.140Z,8.79
2023-05-05T02:35:12.537Z,8.85
2023-05-05T02:37:52.349Z,8.91
2023-05-05T02:40:27.678Z,8.95
2023-05-05T02:43:03.637Z,9.00
2023-05-05T02:45:36.744Z,9.03
2023-05-05T02:48:10.820Z,9.05
2023-05-05T02:50:44.165Z,9.09
2023-05-05T02:53:20.464Z,9.11
2023-05-05T02:56:04.821Z,9.10
2023-05-05T02:58:43.484Z,9.08
2023-05-05T03:01:49.075Z,9.01
2023-05-05T03:04:37.101Z,8.89
2023-05-05T03:07:16.076Z,8.78
2023-05-05T03:10:10.208Z,8.66
2023-05-05T03:12:50.685Z,8.53
2023-05-05T03:15:28.131Z,8.41
2023-05-05T03:20:54.436Z,8.31
2023-05-05T03:23:27.598Z,8.24
2023-05-05T03:26:01.201Z,8.20
2023-05-05T03:28:35.594Z,8.28
2023-05-05T03:31:10.546Z,8.11
2023-05-05T03:33:43.823Z,8.10
2023-05-05T03:36:16.784Z,8.09
2023-05-05T03:38:50.216Z,8.11
2023-05-05T03:41:26.016Z,8.05
2023-05-05T03:43:59.287Z,7.98
2023-05-05T03:46:32.880Z,7.85
2023-05-05T03:49:05.928Z,7.74
2023-05-05T03:51:39.271Z,7.68
2023-05-05T03:54:12.772Z,7.58
2023-05-05T03:56:46.787Z,7.50
2023-05-05T03:59:20.602Z,7.37
2023-05-05T04:01:53.919Z,7.26
2023-05-05T04:04:27.170Z,7.14
2023-05-05T04:07:00.239Z,7.12
2023-05-05T04:09:33.468Z,7.05
2023-05-05T04:12:06.872Z,7.00
2023-05-05T04:14:39.779Z,7.02
2023-05-05T04:17:13.760Z,6.98
2023-05-05T04:19:47.095Z,7.04
2023-05-05T04:22:20.700Z,7.08
2023-05-05T04:24:54.473Z,7.13
2023-05-05T04:27:29.260Z,7.22
2023-05-05T04:30:02.908Z,7.37
2023-05-05T04:32:37.106Z,7.43
2023-05-05T04:35:10.883Z,7.47
2023-05-05T04:37:44.978Z,7.56
2023-05-05T04:40:18.257Z,7.66
2023-05-05T04:42:51.233Z,7.75
2023-05-05T04:45:24.939Z,7.86
2023-05-05T04:48:00.760Z,7.89
2023-05-05T04:50:34.511Z,7.99
2023-05-05T04:53:07.873Z,8.04
2023-05-05T04:55:41.586Z,8.09
2023-05-05T04:58:14.573Z,8.26
2023-05-05T05:00:47.418Z,8.27
2023-05-05T05:03:20.871Z,8.40
2023-05-05T05:05:54.201Z,8.36
2023-05-05T05:08:27.680Z,8.33
2023-05-05T05:11:01.295Z,8.30
2023-05-05T05:13:34.539Z,8.48
2023-05-05T05:16:08.515Z,8.74
2023-05-05T05:18:41.727Z,9.08
2023-05-05T05:21:15.050Z,9.42
2023-05-05T05:23:48.766Z,9.74
2023-05-05T05:26:22.317Z,10.05
2023-05-05T05:28:55.869Z,10.10
2023-05-05T05:31:30.576Z,9.98
2023-05-05T05:34:03.455Z,9.73
2023-05-05T05:36:37.157Z,9.40
2023-05-05T05:39:10.872Z,9.14
2023-05-05T05:41:44.233Z,9.13
2023-05-05T05:44:18.488Z,9.24
2023-05-05T05:46:52.325Z,9.40
2023-05-05T05:49:25.363Z,9.53
2023-05-05T05:51:58.530Z,9.70
2023-05-05T05:54:33.609Z,9.79
2023-05-05T05:57:07.651Z,9.94
2023-05-05T05:59:40.892Z,10.16
2023-05-05T06:02:14.435Z,10.47
2023-05-05T06:04:48.353Z,10.75
2023-05-05T06:07:21.369Z,10.95
2023-05-05T06:09:54.253Z,11.13
2023-05-05T06:12:27.094Z,11.17
2023-05-05T06:15:00.421Z,11.07
2023-05-05T06:17:34.778Z,10.99
2023-05-05T06:20:08.749Z,10.93
2023-05-05T06:22:41.680Z,10.90
2023-05-05T06:25:15.232Z,10.87
2023-05-05T06:27:48.070Z,10.78
2023-05-05T06:30:21.216Z,10.73
2023-05-05T06:32:54.685Z,10.77
2023-05-05T06:35:28.408Z,10.87
2023-05-05T06:38:01.941Z,10.96
2023-05-05T06:40:35.368Z,11.13
2023-05-05T06:43:08.676Z,11.22
2023-05-05T06:45:43.918Z,11.30
2023-05-05T06:48:16.985Z,11.46
2023-05-05T06:50:50.005Z,11.52
2023-05-05T06:53:22.889Z,11.51
2023-05-05T06:55:55.788Z,11.63
2023-05-05T06:58:28.888Z,11.75
2023-05-05T07:01:02.065Z,11.88
2023-05-05T07:03:34.993Z,12.07
2023-05-05T07:06:08.091Z,12.16
2023-05-05T07:08:41.015Z,12.21
2023-05-05T07:11:15.080Z,12.28
2023-05-05T07:13:49.446Z,12.37
2023-05-05T07:16:22.429Z,12.59
2023-05-05T07:18:55.372Z,12.65
2023-05-05T07:21:28.227Z,12.90
2023-05-05T07:24:02.904Z,13.06
2023-05-05T07:26:35.390Z,12.99
2023-05-05T07:29:11.300Z,13.12
2023-05-05T07:31:44.591Z,12.48
2023-05-05T07:34:17.920Z,12.17
2023-05-05T07:36:50.682Z,11.97
2023-05-05T07:39:23.894Z,11.72
2023-05-05T07:41:57.469Z,11.48
2023-05-05T07:44:30.953Z,11.37
2023-05-05T07:47:03.915Z,11.15
2023-05-05T07:49:37.193Z,11.03
2023-05-05T07:52:10.399Z,11.13
2023-05-05T07:54:45.321Z,11.13
2023-05-05T07:57:18.417Z,11.58
2023-05-05T07:59:51.227Z,11.83
2023-05-05T08:02:24.361Z,11.93
2023-05-05T08:04:57.361Z,12.00
2023-05-05T08:07:30.438Z,12.15
2023-05-05T08:10:03.381Z,12.29
2023-05-05T08:12:37.172Z,12.37
2023-05-05T08:15:10.849Z,12.34
2023-05-05T08:17:52.764Z,12.12
2023-05-05T08:20:29.287Z,11.77
2023-05-05T08:23:02.108Z,11.36
2023-05-05T08:25:34.940Z,10.83
2023-05-05T08:28:08.742Z,10.40
2023-05-05T08:30:43.005Z,10.01
2023-05-05T08:33:15.957Z,9.82
2023-05-05T08:35:49.934Z,9.81
2023-05-05T08:38:22.450Z,9.82
2023-05-05T08:40:54.649Z,9.83
2023-05-05T08:43:28.035Z,9.81
2023-05-05T08:46:02.206Z,9.63
2023-05-05T08:48:37.243Z,9.63
2023-05-05T08:51:19.161Z,9.62
2023-05-05T08:54:02.015Z,9.71
2023-05-05T08:56:37.090Z,9.87
2023-05-05T08:59:12.286Z,10.01
2023-05-05T09:01:47.304Z,10.36
2023-05-05T09:04:20.408Z,10.83
2023-05-05T09:06:52.923Z,11.56
2023-05-05T09:09:25.451Z,12.02
2023-05-05T09:11:59.400Z,12.25
2023-05-05T09:17:27.911Z,12.97
2023-05-05T09:20:11.535Z,13.32
2023-05-05T09:22:49.671Z,13.70
2023-05-05T09:25:22.499Z,13.82
2023-05-05T09:27:55.350Z,14.00
2023-05-05T09:30:28.217Z,14.14
2023-05-05T09:33:02.542Z,13.98
2023-05-05T09:35:55.065Z,14.07
2023-05-05T09:38:27.672Z,14.27
2023-05-05T09:41:00.695Z,14.50
2023-05-05T09:43:34.431Z,14.43
2023-05-05T09:46:09.954Z,14.52
2023-05-05T09:48:43.016Z,14.70
2023-05-05T09:51:15.859Z,14.73
2023-05-05T09:53:48.358Z,14.61
2023-05-05T09:56:21.109Z,14.15
2023-05-05T09:58:58.679Z,13.83
2023-05-05T10:01:30.658Z,13.62
2023-05-05T10:04:02.952Z,13.40
2023-05-05T10:06:43.603Z,13.08
2023-05-05T10:09:16.324Z,12.69
2023-05-05T10:11:49.346Z,12.49
2023-05-05T10:14:22.215Z,12.21
2023-05-05T10:16:55.981Z,12.00
2023-05-05T10:19:30.712Z,11.72
2023-05-05T10:22:05.011Z,11.50
2023-05-05T10:24:42.880Z,11.19
2023-05-05T10:27:20.701Z,10.93
2023-05-05T10:30:08.471Z,10.88
2023-05-05T10:32:56.059Z,11.00
2023-05-05T10:35:26.603Z,11.28
2023-05-05T10:38:01.232Z,11.36
2023-05-05T10:40:34.211Z,11.75
2023-05-05T10:43:08.060Z,12.33
2023-05-05T10:45:42.394Z,12.77
2023-05-05T10:48:18.070Z,13.10
2023-05-05T10:50:56.190Z,13.15
2023-05-05T10:53:31.618Z,13.16
2023-05-05T10:56:13.063Z,13.11
2023-05-05T10:58:59.023Z,13.09
2023-05-05T11:01:34.082Z,12.98
2023-05-05T11:04:22.751Z,12.82
2023-05-05T11:07:16.085Z,12.47
2023-05-05T11:10:02.169Z,11.91
2023-05-05T11:13:01.533Z,11.46
2023-05-05T11:15:36.326Z,11.17
2023-05-05T11:18:08.620Z,10.87
2023-05-05T11:20:44.767Z,10.95
2023-05-05T11:23:25.070Z,10.57
2023-05-05T11:25:58.409Z,10.46
2023-05-05T11:28:32.515Z,10.50
2023-05-05T11:31:07.862Z,10.68
2023-05-05T11:33:41.285Z,10.77
2023-05-05T11:36:18.945Z,10.83
2023-05-05T11:39:02.991Z,10.93
2023-05-05T11:41:40.971Z,11.03
2023-05-05T11:44:17.968Z,11.02
2023-05-05T11:46:56.099Z,10.97
2023-05-05T11:49:29.785Z,11.03
2023-05-05T11:52:13.256Z,11.61
2023-05-05T11:54:49.214Z,11.92
2023-05-05T11:57:24.081Z,12.08
2023-05-05T12:00:08.521Z,12.21
2023-05-05T12:02:42.787Z,12.46
2023-05-05T12:05:18.195Z,12.55
2023-05-05T12:07:52.174Z,12.68
2023-05-05T12:10:25.024Z,13.18
2023-05-05T12:12:57.805Z,13.45
2023-05-05T12:15:31.449Z,13.82
2023-05-05T12:18:05.782Z,15.28
2023-05-05T12:20:38.102Z,17.07
2023-05-05T12:23:12.574Z,18.58
2023-05-05T12:25:45.914Z,20.31
2023-05-05T12:28:18.329Z,22.78
2023-05-05T12:31:00.057Z,25.18
2023-05-05T12:33:34.212Z,25.60
2023-05-05T12:36:06.975Z,24.32
2023-05-05T12:38:39.615Z,22.63
2023-05-05T12:41:11.747Z,20.99
2023-05-05T12:43:44.476Z,19.70
2023-05-05T12:46:17.644Z,19.25
2023-05-05T12:49:05.412Z,18.42
2023-05-05T12:51:38.959Z,17.59
2023-05-05T12:54:14.133Z,16.69
2023-05-05T12:56:47.760Z,16.97
2023-05-05T12:59:27.909Z,17.28
2023-05-05T13:02:04.179Z,17.47
2023-05-05T13:04:39.397Z,17.76
2023-05-05T13:07:14.385Z,19.08
2023-05-05T13:09:47.813Z,20.51
2023-05-05T13:12:22.662Z,22.95
2023-05-05T13:14:54.717Z,24.08
2023-05-05T13:17:27.121Z,24.07
2023-05-05T13:20:00.341Z,24.24
2023-05-05T13:22:33.824Z,26.05
2023-05-05T13:25:06.251Z,27.67
2023-05-05T13:27:38.707Z,27.10
2023-05-05T13:30:11.567Z,24.98
2023-05-05T13:32:44.072Z,22.56
2023-05-05T13:35:17.378Z,20.38
2023-05-05T13:37:49.704Z,18.89
2023-05-05T13:40:24.486Z,18.38
2023-05-05T13:42:56.356Z,19.61
2023-05-05T13:45:29.077Z,19.27
2023-05-05T13:48:01.552Z,18.37
2023-05-05T13:50:33.668Z,17.45
2023-05-05T13:53:06.238Z,17.22
2023-05-05T13:55:38.487Z,19.28
2023-05-05T13:58:10.903Z,19.57
2023-05-05T14:00:43.631Z,18.75
2023-05-05T14:03:16.179Z,17.50
2023-05-05T14:05:48.728Z,16.13
2023-05-05T14:08:21.245Z,15.01
2023-05-05T14:10:53.696Z,14.24
2023-05-05T14:13:26.448Z,14.74
2023-05-05T14:15:58.947Z,15.80
2023-05-05T14:18:31.617Z,15.80
2023-05-05T14:21:04.488Z,17.46
2023-05-05T14:23:37.366Z,19.88
2023-05-05T14:26:09.771Z,22.50
2023-05-05T14:28:42.475Z,24.99
2023-05-05T14:31:15.046Z,26.57
2023-05-05T14:33:47.401Z,27.67
2023-05-05T14:36:20.736Z,27.61
2023-05-05T14:38:53.448Z,24.91
2023-05-05T14:41:26.109Z,24.91
2023-05-05T14:43:59.574Z,23.09
2023-05-05T14:46:32.601Z,21.53
2023-05-05T14:49:05.342Z,20.36
2023-05-05T14:51:37.923Z,19.25
2023-05-05T14:54:24.049Z,18.68
2023-05-05T14:56:44.647Z,18.80
2023-05-05T14:59:16.860Z,20.54
2023-05-05T15:01:49.680Z,22.74
2023-05-05T15:04:22.145Z,24.78
2023-05-05T15:06:54.505Z,25.09
2023-05-05T15:09:26.919Z,23.28
2023-05-05T15:11:59.272Z,20.99
2023-05-05T15:14:31.957Z,18.86
2023-05-05T15:17:04.592Z,17.25
2023-05-05T15:19:37.197Z,15.99
2023-05-05T15:22:09.582Z,14.95
2023-05-05T15:24:42.118Z,14.10
2023-05-05T15:27:14.382Z,13.47
2023-05-05T15:29:47.050Z,12.91
2023-05-05T15:32:20.361Z,12.52
2023-05-05T15:34:53.083Z,12.04
2023-05-05T15:37:25.311Z,11.67
2023-05-05T15:39:57.966Z,11.34
2023-05-05T15:42:31.859Z,11.12
2023-05-05T15:45:04.266Z,10.84
2023-05-05T15:47:36.809Z,10.67
2023-05-05T15:50:09.955Z,10.38
2023-05-05T15:52:42.190Z,10.26
2023-05-05T15:55:14.369Z,10.09
2023-05-05T15:57:46.594Z,10.06
2023-05-05T16:00:18.926Z,10.03
2023-05-05T16:02:51.334Z,10.07
2023-05-05T16:05:23.915Z,10.10
2023-05-05T16:07:56.961Z,10.02
2023-05-05T16:10:29.475Z,9.88
2023-05-05T16:13:01.841Z,9.74
2023-05-05T16:15:34.235Z,9.58
2023-05-05T16:18:06.830Z,9.53
2023-05-05T16:20:39.656Z,9.58
2023-05-05T16:23:12.329Z,9.55
2023-05-05T16:25:45.045Z,9.51
2023-05-05T16:28:18.706Z,9.39
2023-05-05T16:30:51.174Z,9.21
2023-05-05T16:33:24.717Z,9.04
2023-05-05T16:35:57.028Z,8.89
2023-05-05T16:38:29.435Z,8.77
2023-05-05T16:41:01.823Z,8.65
2023-05-05T16:43:34.235Z,8.53
2023-05-05T16:46:08.145Z,8.41
2023-05-05T16:48:41.130Z,8.31
2023-05-05T16:51:14.177Z,8.21
2023-05-05T16:53:48.833Z,8.10
2023-05-05T16:56:21.258Z,8.02
2023-05-05T16:58:53.819Z,7.92
2023-05-05T17:01:26.156Z,7.85
2023-05-05T17:04:00.042Z,7.76
2023-05-05T17:06:34.047Z,7.66
2023-05-05T17:09:06.417Z,7.58
2023-05-05T17:11:38.507Z,7.49
2023-05-05T17:14:10.870Z,7.38
2023-05-05T17:16:43.304Z,7.28
2023-05-05T17:19:15.696Z,7.22
2023-05-05T17:21:48.035Z,7.13
2023-05-05T17:24:20.936Z,7.10
2023-05-05T17:26:53.210Z,7.02
2023-05-05T17:29:25.580Z,6.96
2023-05-05T17:31:58.223Z,6.92
2023-05-05T17:34:30.461Z,6.92
2023-05-05T17:37:02.888Z,6.85
2023-05-05T17:39:35.299Z,6.78
2023-05-05T17:42:07.908Z,6.71
2023-05-05T17:44:40.444Z,6.64
2023-05-05T17:47:12.455Z,6.58
2023-05-05T17:49:44.898Z,6.53
2023-05-05T17:52:17.482Z,6.50
2023-05-05T17:54:50.240Z,6.47
2023-05-05T17:57:22.964Z,6.45
2023-05-05T17:59:55.132Z,6.42
2023-05-05T18:02:27.941Z,6.45
2023-05-05T18:05:00.629Z,6.44
2023-05-05T18:07:33.891Z,6.41
2023-05-05T18:10:08.301Z,6.41
2023-05-05T18:12:40.841Z,6.39
2023-05-05T18:15:13.208Z,6.35
2023-05-05T18:17:45.355Z,6.37
2023-05-05T18:20:18.363Z,6.29
2023-05-05T18:22:50.551Z,6.22
2023-05-05T18:25:23.543Z,6.12
2023-05-05T18:27:55.617Z,6.04
2023-05-05T18:30:27.889Z,5.99
2023-05-05T18:33:00.358Z,5.92
2023-05-05T18:35:32.490Z,5.85
2023-05-05T18:38:05.505Z,5.84
2023-05-05T18:40:40.647Z,5.90
2023-05-05T18:43:12.888Z,5.89
2023-05-05T18:45:45.032Z,5.86
2023-05-05T18:48:17.614Z,5.87
2023-05-05T18:50:51.562Z,5.87
2023-05-05T18:53:23.752Z,5.92
2023-05-05T18:55:56.097Z,5.91
2023-05-05T18:58:28.688Z,5.89
2023-05-05T19:01:01.401Z,5.84
2023-05-05T19:03:34.891Z,5.80
2023-05-05T19:06:07.868Z,5.74
2023-05-05T19:08:39.912Z,5.71
2023-05-05T19:11:12.633Z,5.71
2023-05-05T19:13:45.576Z,5.72
2023-05-05T19:16:18.263Z,5.72
2023-05-05T19:18:50.681Z,5.72
2023-05-05T19:21:23.047Z,5.71
2023-05-05T19:23:55.583Z,5.68
2023-05-05T19:26:27.823Z,5.64
2023-05-05T19:29:00.994Z,5.64
2023-05-05T19:31:33.566Z,5.56
2023-05-05T19:34:06.597Z,5.48
2023-05-05T19:36:39.217Z,5.49
2023-05-05T19:39:13.662Z,5.56
2023-05-05T19:41:46.092Z,5.55
2023-05-05T19:44:18.420Z,5.56
2023-05-05T19:46:50.660Z,5.51
2023-05-05T19:49:23.135Z,5.42
2023-05-05T19:51:56.518Z,5.34
2023-05-05T19:54:29.012Z,5.25
2023-05-05T19:57:02.173Z,5.18
2023-05-05T19:59:34.988Z,5.13
2023-05-05T20:02:09.605Z,5.09
2023-05-05T20:04:40.973Z,5.08
2023-05-05T20:07:13.140Z,5.18
2023-05-05T20:09:45.630Z,5.00
2023-05-05T20:12:20.115Z,4.95
2023-05-05T20:14:52.644Z,4.89
2023-05-05T20:17:25.801Z,4.83
2023-05-05T20:19:57.825Z,4.76
2023-05-05T20:22:31.080Z,4.77
2023-05-05T20:25:04.363Z,4.75
2023-05-05T20:27:36.901Z,4.73
2023-05-05T20:30:10.807Z,4.66
2023-05-05T20:32:43.465Z,4.62
2023-05-05T20:35:16.328Z,4.62
2023-05-05T20:37:48.742Z,4.66
2023-05-05T20:40:21.201Z,4.66
2023-05-05T20:42:53.748Z,4.66
2023-05-05T20:45:26.502Z,4.69
2023-05-05T20:47:58.851Z,4.67
2023-05-05T20:50:31.281Z,4.64
2023-05-05T20:53:03.281Z,4.61
2023-05-05T20:55:35.496Z,4.55
2023-05-05T20:58:07.798Z,4.50
2023-05-05T21:00:40.169Z,4.50
2023-05-05T21:03:12.444Z,4.50
2023-05-05T21:05:46.571Z,4.46
2023-05-05T21:08:18.972Z,4.43
2023-05-05T21:10:51.336Z,4.38
2023-05-05T21:13:23.599Z,4.35
2023-05-05T21:15:55.836Z,4.29
2023-05-05T21:18:28.097Z,4.27
2023-05-05T21:21:01.522Z,4.30
2023-05-05T21:23:33.749Z,4.27
2023-05-05T21:26:06.347Z,4.22
2023-05-05T21:28:38.675Z,4.14
2023-05-05T21:31:21.747Z,4.09
2023-05-05T21:33:44.805Z,4.01
2023-05-05T21:36:17.864Z,3.94
2023-05-05T21:38:51.431Z,3.91
2023-05-05T21:41:24.639Z,3.88
2023-05-05T21:43:57.274Z,3.89
2023-05-05T21:46:30.381Z,3.84
2023-05-05T21:49:04.211Z,3.85
2023-05-05T21:51:37.688Z,3.88
2023-05-05T21:54:10.423Z,3.83
2023-05-05T21:56:42.702Z,3.74
2023-05-05T21:59:16.489Z,3.67
2023-05-05T22:01:50.545Z,3.59
2023-05-05T22:04:22.883Z,3.54
2023-05-05T22:06:55.194Z,3.53
2023-05-05T22:09:28.114Z,3.52
2023-05-05T22:12:00.482Z,3.44
2023-05-05T22:14:32.955Z,3.42
2023-05-05T22:17:05.112Z,3.40
2023-05-05T22:19:37.723Z,3.38
2023-05-05T22:22:10.477Z,3.35
2023-05-05T22:24:42.573Z,3.28
2023-05-05T22:27:16.281Z,3.30
2023-05-05T22:29:48.966Z,3.25
2023-05-05T22:32:21.788Z,3.23
2023-05-05T22:34:54.134Z,3.14
2023-05-05T22:37:28.634Z,3.08
2023-05-05T22:40:03.955Z,3.04
2023-05-05T22:42:37.280Z,3.04
2023-05-05T22:45:11.552Z,3.07
2023-05-05T22:47:44.599Z,3.01
2023-05-05T22:50:19.244Z,3.00
2023-05-05T22:52:51.678Z,2.97
2023-05-05T22:55:25.298Z,2.96
2023-05-05T22:57:57.892Z,2.90
2023-05-05T23:00:30.282Z,2.90
2023-05-05T23:03:02.762Z,2.85
2023-05-05T23:05:35.796Z,2.75
2023-05-05T23:08:08.487Z,2.72
2023-05-05T23:10:40.600Z,2.67
2023-05-05T23:13:13.013Z,2.66
2023-05-05T23:15:45.290Z,2.66
2023-05-05T23:18:17.535Z,2.57
2023-05-05T23:20:50.012Z,2.49
2023-05-05T23:23:22.908Z,2.44
2023-05-05T23:25:55.441Z,2.48
2023-05-05T23:28:27.748Z,2.48
2023-05-05T23:31:00.177Z,2.44
2023-05-05T23:33:32.354Z,2.42
2023-05-05T23:36:05.229Z,2.40
2023-05-05T23:38:37.487Z,2.31
2023-05-05T23:41:09.741Z,2.26
2023-05-05T23:43:42.705Z,2.17
2023-05-05T23:46:14.866Z,2.16
2023-05-05T23:48:47.077Z,2.12
2023-05-05T23:51:19.401Z,2.12
2023-05-05T23:53:51.641Z,2.05
2023-05-05T23:56:25.036Z,2.01
2023-05-05T23:58:57.290Z,1.98
